createdAt,value
2023-03-16T08:08:23.504Z,67.25
2023-03-16T08:09:23.360Z,66.40
2023-03-16T08:10:23.186Z,68.97
2023-03-16T08:11:23.115Z,68.76
2023-03-16T08:12:23.102Z,67.27
2023-03-16T08:13:23.080Z,68.72
2023-03-16T08:14:23.088Z,68.39
2023-03-16T08:15:23.045Z,66.69
2023-03-16T08:16:23.056Z,67.76
2023-03-16T08:17:23.036Z,67.25
2023-03-16T08:18:23.018Z,66.99
2023-03-16T08:19:23.043Z,67.63
2023-03-16T08:20:22.980Z,64.75
2023-03-16T08:21:22.970Z,66.09
2023-03-16T08:22:22.990Z,66.99
2023-03-16T08:23:22.958Z,66.79
2023-03-16T08:24:22.950Z,67.24
2023-03-16T08:25:22.969Z,67.71
2023-03-16T08:26:22.947Z,66.05
2023-03-16T08:27:22.935Z,66.68
2023-03-16T08:28:22.890Z,67.28
2023-03-16T08:29:22.894Z,67.33
2023-03-16T08:30:22.912Z,66.25
2023-03-16T08:31:22.973Z,64.81
2023-03-16T08:32:22.886Z,65.49
2023-03-16T08:33:23.504Z,66.93
2023-03-16T08:34:22.838Z,66.45
2023-03-16T08:35:22.837Z,67.49
2023-03-16T08:36:22.823Z,65.87
2023-03-16T08:37:22.806Z,66.67
2023-03-16T08:38:22.793Z,67.43
2023-03-16T08:39:22.824Z,67.09
2023-03-16T08:40:22.782Z,67.38
2023-03-16T08:41:22.770Z,65.15
2023-03-16T08:42:22.734Z,66.54
2023-03-16T08:43:22.747Z,66.77
2023-03-16T08:44:22.807Z,66.40
2023-03-16T08:45:22.709Z,65.38
2023-03-16T08:46:22.730Z,67.51
2023-03-16T08:47:22.697Z,66.46
2023-03-16T08:48:22.688Z,67.93
2023-03-16T08:49:22.674Z,67.33
2023-03-16T08:50:22.656Z,66.16
2023-03-16T08:51:22.656Z,67.86
2023-03-16T08:52:23.082Z,66.91
2023-03-16T08:53:36.730Z,66.62
2023-03-16T08:54:22.645Z,67.84
2023-03-16T08:55:22.676Z,67.50
2023-03-16T08:56:22.607Z,67.66
2023-03-16T08:57:22.639Z,67.25
2023-03-16T08:58:22.584Z,65.27
2023-03-16T08:59:29.807Z,68.22
2023-03-16T09:00:23.557Z,68.47
2023-03-16T09:01:22.626Z,67.94
2023-03-16T09:02:22.596Z,64.98
2023-03-16T09:03:22.506Z,68.68
2023-03-16T09:04:22.588Z,68.09
2023-03-16T09:05:22.532Z,67.69
2023-03-16T09:06:22.521Z,66.94
2023-03-16T09:07:22.464Z,68.39
2023-03-16T09:08:22.491Z,66.70
2023-03-16T09:09:22.438Z,66.60
2023-03-16T09:10:22.434Z,67.06
2023-03-16T09:11:22.450Z,67.73
2023-03-16T09:12:22.491Z,67.74
2023-03-16T09:13:22.456Z,68.19
2023-03-16T09:14:22.405Z,65.72
2023-03-16T09:15:22.412Z,67.11
2023-03-16T09:16:22.374Z,66.78
2023-03-16T09:17:22.381Z,67.25
2023-03-16T09:18:22.403Z,65.97
2023-03-16T09:19:22.349Z,68.22
2023-03-16T09:20:26.437Z,67.15
2023-03-16T09:21:23.306Z,65.84
2023-03-16T09:22:22.291Z,67.77
2023-03-16T09:23:22.296Z,66.11
2023-03-16T09:24:23.311Z,67.30
2023-03-16T09:25:22.289Z,66.85
2023-03-16T09:26:22.250Z,68.80
2023-03-16T09:27:22.308Z,67.57
2023-03-16T09:28:22.327Z,69.19
2023-03-16T09:29:23.246Z,67.87
2023-03-16T09:30:22.205Z,68.86
2023-03-16T09:31:22.226Z,68.95
2023-03-16T09:32:22.171Z,68.58
2023-03-16T09:33:22.180Z,68.80
2023-03-16T09:34:22.155Z,66.12
2023-03-16T09:35:22.169Z,66.85
2023-03-16T09:36:22.116Z,68.10
2023-03-16T09:37:22.127Z,68.22
2023-03-16T09:38:22.114Z,68.23
2023-03-16T09:39:22.082Z,68.40
2023-03-16T09:40:22.241Z,67.70
2023-03-16T09:41:22.052Z,70.22
2023-03-16T09:42:22.062Z,68.83
2023-03-16T09:43:22.055Z,68.72
2023-03-16T09:44:22.027Z,66.52
2023-03-16T09:45:22.083Z,64.50
2023-03-16T09:46:22.066Z,68.48
2023-03-16T09:47:21.985Z,68.45
2023-03-16T09:48:21.977Z,67.80
2023-03-16T09:49:21.966Z,67.49
2023-03-16T09:50:22.386Z,68.12
2023-03-16T09:51:22.002Z,67.19
2023-03-16T09:52:21.914Z,67.73
2023-03-16T09:53:21.892Z,68.50
2023-03-16T09:54:21.907Z,70.21
2023-03-16T09:55:21.884Z,68.72
2023-03-16T09:56:21.894Z,67.67
2023-03-16T09:57:21.876Z,68.75
2023-03-16T09:58:21.875Z,67.02
2023-03-16T09:59:22.181Z,68.68
2023-03-16T10:00:21.840Z,67.55
2023-03-16T10:01:21.936Z,69.33
2023-03-16T10:02:21.805Z,68.27
2023-03-16T10:03:21.806Z,68.10
2023-03-16T10:04:21.801Z,66.66
2023-03-16T10:05:21.762Z,67.63
2023-03-16T10:06:21.780Z,67.24
2023-03-16T10:07:21.739Z,68.27
2023-03-16T10:08:21.749Z,68.45
2023-03-16T10:09:21.725Z,67.85
2023-03-16T10:10:21.725Z,68.72
2023-03-16T10:11:21.744Z,68.28
2023-03-16T10:12:21.707Z,68.84
2023-03-16T10:13:21.680Z,69.43
2023-03-16T10:14:21.657Z,68.91
2023-03-16T10:15:21.678Z,67.68
2023-03-16T10:16:21.685Z,67.70
2023-03-16T10:17:21.696Z,67.47
2023-03-16T10:18:21.629Z,68.58
2023-03-16T10:19:21.610Z,66.86
2023-03-16T10:20:21.588Z,68.10
2023-03-16T10:21:21.571Z,67.83
2023-03-16T10:22:22.599Z,67.40
2023-03-16T10:23:21.548Z,68.53
2023-03-16T10:24:21.533Z,68.51
2023-03-16T10:25:21.531Z,68.00
2023-03-16T10:26:21.513Z,68.20
2023-03-16T10:27:21.528Z,66.00
2023-03-16T10:28:21.510Z,65.14
2023-03-16T10:29:21.500Z,67.25
2023-03-16T10:30:21.579Z,68.55
2023-03-16T10:31:21.513Z,69.04
2023-03-16T10:32:21.468Z,69.40
2023-03-16T10:33:21.463Z,68.32
2023-03-16T10:34:21.432Z,66.60
2023-03-16T10:35:21.611Z,68.63
2023-03-16T10:36:21.406Z,67.01
2023-03-16T10:37:21.433Z,66.57
2023-03-16T10:38:21.411Z,67.98
2023-03-16T10:39:21.379Z,69.14
2023-03-16T10:40:21.402Z,67.49
2023-03-16T10:41:21.379Z,66.63
2023-03-16T10:42:21.483Z,68.63
2023-03-16T10:43:21.338Z,67.44
2023-03-16T10:44:21.320Z,66.66
2023-03-16T10:45:22.034Z,68.23
2023-03-16T10:46:21.385Z,69.54
2023-03-16T10:47:21.399Z,67.97
2023-03-16T10:48:21.301Z,68.35
2023-03-16T10:49:21.253Z,68.70
2023-03-16T10:50:21.283Z,67.56
2023-03-16T10:51:21.255Z,66.79
2023-03-16T10:52:21.243Z,70.34
2023-03-16T10:53:21.224Z,67.64
2023-03-16T10:54:21.871Z,69.95
2023-03-16T10:55:21.197Z,68.23
2023-03-16T10:56:21.170Z,68.70
2023-03-16T10:57:21.186Z,68.87
2023-03-16T10:58:21.181Z,67.58
2023-03-16T10:59:21.152Z,69.75
2023-03-16T11:00:21.133Z,69.55
2023-03-16T11:01:21.170Z,68.88
2023-03-16T11:02:21.125Z,67.48
2023-03-16T11:03:21.113Z,67.62
2023-03-16T11:04:21.179Z,67.41
2023-03-16T11:05:21.091Z,68.35
2023-03-16T11:06:21.105Z,67.48
2023-03-16T11:07:21.070Z,69.41
2023-03-16T11:08:21.068Z,69.71
2023-03-16T11:09:21.035Z,69.07
2023-03-16T11:10:21.029Z,69.15
2023-03-16T11:11:21.030Z,69.73
2023-03-16T11:12:21.000Z,68.88
2023-03-16T11:13:21.036Z,68.43
2023-03-16T11:14:21.032Z,69.46
2023-03-16T11:15:26.023Z,68.83
2023-03-16T11:16:22.079Z,70.51
2023-03-16T11:17:20.945Z,68.83
2023-03-16T11:18:21.013Z,68.82
2023-03-16T11:19:20.941Z,68.77
2023-03-16T11:20:20.925Z,69.13
2023-03-16T11:21:20.947Z,69.46
2023-03-16T11:22:20.901Z,67.80
2023-03-16T11:23:20.932Z,68.93
2023-03-16T11:24:20.909Z,68.71
2023-03-16T11:25:20.837Z,68.59
2023-03-16T11:26:20.839Z,69.02
2023-03-16T11:27:20.841Z,68.23
2023-03-16T11:28:20.834Z,67.32
2023-03-16T11:29:20.831Z,67.74
2023-03-16T11:30:21.025Z,68.82
2023-03-16T11:31:21.081Z,69.32
2023-03-16T11:32:20.815Z,67.77
2023-03-16T11:33:20.891Z,67.08
2023-03-16T11:34:20.856Z,67.53
2023-03-16T11:35:20.832Z,69.16
2023-03-16T11:36:20.794Z,68.95
2023-03-16T11:37:20.807Z,68.89
2023-03-16T11:38:20.741Z,67.57
2023-03-16T11:39:20.978Z,68.99
2023-03-16T11:40:22.141Z,69.19
2023-03-16T11:41:20.830Z,69.44
2023-03-16T11:42:20.964Z,68.17
2023-03-16T11:43:20.718Z,68.48
2023-03-16T11:44:20.636Z,68.22
2023-03-16T11:45:20.824Z,70.09
2023-03-16T11:46:21.445Z,69.98
2023-03-16T11:47:20.927Z,69.47
2023-03-16T11:48:21.078Z,69.15
2023-03-16T11:49:20.627Z,67.62
2023-03-16T11:50:20.857Z,68.51
2023-03-16T12:13:23.689Z,69.86
2023-03-16T12:14:24.348Z,68.97
2023-03-16T12:15:23.497Z,68.61
2023-03-16T12:16:23.466Z,70.61
2023-03-16T12:17:23.462Z,68.63
2023-03-16T12:18:23.471Z,67.22
2023-03-16T12:19:23.489Z,66.44
2023-03-16T12:20:23.445Z,67.87
2023-03-16T12:21:23.412Z,67.50
2023-03-16T12:22:23.376Z,67.57
2023-03-16T12:23:23.447Z,68.14
2023-03-16T12:24:23.340Z,67.74
2023-03-16T12:25:23.350Z,69.75
2023-03-16T12:26:23.365Z,67.89
2023-03-16T12:27:23.322Z,69.06
2023-03-16T12:28:23.311Z,69.21
2023-03-16T12:29:23.284Z,68.38
2023-03-16T12:30:23.290Z,67.07
2023-03-16T12:31:23.314Z,68.02
2023-03-16T12:32:23.277Z,69.32
2023-03-16T12:33:23.276Z,68.18
2023-03-16T12:34:23.247Z,67.54
2023-03-16T12:35:23.250Z,69.33
2023-03-16T12:36:23.232Z,69.78
2023-03-16T12:37:23.186Z,69.90
2023-03-16T12:38:23.235Z,68.09
2023-03-16T12:39:23.181Z,69.20
2023-03-16T12:40:23.185Z,67.91
2023-03-16T12:41:23.164Z,69.20
2023-03-16T12:42:23.160Z,69.43
2023-03-16T12:43:23.144Z,69.13
2023-03-16T12:44:23.113Z,66.89
2023-03-16T12:45:23.114Z,69.41
2023-03-16T12:46:23.247Z,70.07
2023-03-16T12:47:23.087Z,67.87
2023-03-16T12:48:23.111Z,68.72
2023-03-16T12:49:23.075Z,68.84
2023-03-16T12:50:23.045Z,69.14
2023-03-16T12:51:23.042Z,69.34
2023-03-16T12:52:23.002Z,68.82
2023-03-16T12:53:22.995Z,68.34
2023-03-16T12:54:23.019Z,68.02
2023-03-16T12:55:22.984Z,66.79
2023-03-16T12:56:22.962Z,67.03
2023-03-16T12:57:22.950Z,67.45
2023-03-16T12:58:22.988Z,68.09
2023-03-16T12:59:22.966Z,68.41
2023-03-16T13:00:22.899Z,69.65
2023-03-16T13:01:23.021Z,69.15
2023-03-16T13:02:22.930Z,67.61
2023-03-16T13:03:22.865Z,69.00
2023-03-16T13:04:23.053Z,68.27
2023-03-16T13:05:22.863Z,67.59
2023-03-16T13:06:22.856Z,67.55
2023-03-16T13:07:22.860Z,69.26
2023-03-16T13:08:22.940Z,69.47
2023-03-16T13:09:22.977Z,68.64
2023-03-16T13:10:22.857Z,69.17
2023-03-16T13:11:22.788Z,69.23
2023-03-16T13:12:22.792Z,68.07
2023-03-16T13:13:22.761Z,68.99
2023-03-16T13:14:22.828Z,69.07
2023-03-16T13:15:22.731Z,68.90
2023-03-16T13:16:22.806Z,69.56
2023-03-16T13:17:22.862Z,69.81
2023-03-16T13:18:22.826Z,68.48
2023-03-16T13:19:22.705Z,68.28
2023-03-16T13:20:30.303Z,67.93
2023-03-16T13:21:22.691Z,67.13
2023-03-16T13:22:22.675Z,69.75
2023-03-16T13:23:22.686Z,68.79
2023-03-16T13:24:22.620Z,68.25
2023-03-16T13:25:22.711Z,69.27
2023-03-16T13:26:22.601Z,66.07
2023-03-16T13:27:22.620Z,67.82
2023-03-16T13:28:22.573Z,68.86
2023-03-16T13:29:23.643Z,69.26
2023-03-16T13:30:22.619Z,69.58
2023-03-16T13:31:22.615Z,70.24
2023-03-16T13:32:22.542Z,69.33
2023-03-16T13:33:22.516Z,68.51
2023-03-16T13:34:23.518Z,70.08
2023-03-16T13:35:22.479Z,69.95
2023-03-16T13:36:22.513Z,69.90
2023-03-16T13:37:22.488Z,70.46
2023-03-16T13:38:23.318Z,69.48
2023-03-16T13:39:22.648Z,68.67
2023-03-16T13:40:22.447Z,71.34
2023-03-16T13:41:22.416Z,69.17
2023-03-16T13:42:22.454Z,67.18
2023-03-16T13:43:22.418Z,69.61
2023-03-16T13:44:22.396Z,68.84
2023-03-16T13:45:22.414Z,69.06
2023-03-16T13:46:22.520Z,69.02
2023-03-16T13:47:22.392Z,67.58
2023-03-16T13:48:22.352Z,68.29
2023-03-16T13:49:22.364Z,67.43
2023-03-16T13:50:22.331Z,69.61
2023-03-16T13:51:22.336Z,69.05
2023-03-16T13:52:22.350Z,70.56
2023-03-16T13:53:22.297Z,69.74
2023-03-16T13:54:22.285Z,68.08
2023-03-16T13:55:22.296Z,68.99
2023-03-16T13:56:22.285Z,68.33
2023-03-16T13:57:22.261Z,69.65
2023-03-16T13:58:22.239Z,69.48
2023-03-16T13:59:22.200Z,68.77
2023-03-16T14:00:22.197Z,67.67
2023-03-16T14:01:22.290Z,70.40
2023-03-16T14:02:22.218Z,69.79
2023-03-16T14:03:22.198Z,69.66
2023-03-16T14:04:22.653Z,68.87
2023-03-16T14:05:22.142Z,70.30
2023-03-16T14:06:22.141Z,69.36
2023-03-16T14:07:23.141Z,69.48
2023-03-16T14:08:22.136Z,69.39
2023-03-16T14:09:22.115Z,70.19
2023-03-16T14:10:22.091Z,70.79
2023-03-16T14:11:22.098Z,69.27
2023-03-16T14:12:22.102Z,69.18
2023-03-16T14:13:22.572Z,68.94
2023-03-16T14:14:22.061Z,70.10
2023-03-16T14:15:22.035Z,69.74
2023-03-16T14:16:22.069Z,70.07
2023-03-16T14:17:22.036Z,70.45
2023-03-16T14:18:22.018Z,69.87
2023-03-16T14:19:22.006Z,70.42
2023-03-16T14:20:21.961Z,69.43
2023-03-16T14:21:21.964Z,70.68
2023-03-16T14:22:21.945Z,70.19
2023-03-16T14:23:22.973Z,70.80
2023-03-16T14:24:21.931Z,70.76
2023-03-16T14:25:21.912Z,70.61
2023-03-16T14:26:22.527Z,69.69
2023-03-16T14:27:21.910Z,70.46
2023-03-16T14:28:21.871Z,70.50
2023-03-16T14:29:21.869Z,68.88
2023-03-16T14:30:21.829Z,70.06
2023-03-16T14:31:21.969Z,70.00
2023-03-16T14:32:21.797Z,71.12
2023-03-16T14:33:21.823Z,70.33
2023-03-16T14:34:21.808Z,69.83
2023-03-16T14:35:21.786Z,70.81
2023-03-16T14:36:21.787Z,69.28
2023-03-16T14:37:21.764Z,69.18
2023-03-16T14:38:21.842Z,68.78
2023-03-16T14:39:21.742Z,70.54
2023-03-16T14:40:22.725Z,68.83
2023-03-16T14:41:22.711Z,69.77
2023-03-16T14:42:21.695Z,69.53
2023-03-16T14:43:21.741Z,69.08
2023-03-16T14:44:21.691Z,67.12
2023-03-16T14:45:21.645Z,67.76
2023-03-16T14:46:21.696Z,70.87
2023-03-16T14:47:21.617Z,69.75
2023-03-16T14:48:21.627Z,70.07
2023-03-16T14:49:21.632Z,70.13
2023-03-16T14:50:21.590Z,69.95
2023-03-16T14:51:21.583Z,68.84
2023-03-16T14:52:21.582Z,69.27
2023-03-16T14:53:21.571Z,69.88
2023-03-16T14:54:21.567Z,68.23
2023-03-16T14:55:21.545Z,69.38
2023-03-16T14:56:21.525Z,69.82
2023-03-16T14:57:21.509Z,69.75
2023-03-16T14:58:21.531Z,70.88
2023-03-16T14:59:21.496Z,69.79
2023-03-16T15:00:21.489Z,69.74
2023-03-16T15:01:21.505Z,69.56
2023-03-16T15:02:21.531Z,70.58
2023-03-16T15:03:21.445Z,70.70
2023-03-16T15:04:21.479Z,69.76
2023-03-16T15:05:21.400Z,69.81
2023-03-16T15:06:21.421Z,70.06
2023-03-16T15:07:21.413Z,69.71
2023-03-16T15:08:22.285Z,70.08
2023-03-16T15:09:21.377Z,70.47
2023-03-16T15:10:21.340Z,70.24
2023-03-16T15:11:21.398Z,69.93
2023-03-16T15:12:21.326Z,70.65
2023-03-16T15:13:21.314Z,70.20
2023-03-16T15:14:21.328Z,71.41
2023-03-16T15:15:21.298Z,70.83
2023-03-16T15:16:21.333Z,69.50
2023-03-16T15:17:21.315Z,70.43
2023-03-16T15:18:21.266Z,69.60
2023-03-16T15:19:21.276Z,69.76
2023-03-16T15:20:22.668Z,69.50
2023-03-16T15:21:21.250Z,70.47
2023-03-16T15:22:21.220Z,70.06
2023-03-16T15:23:21.193Z,70.94
2023-03-16T15:24:21.195Z,70.02
2023-03-16T15:25:21.203Z,70.39
2023-03-16T15:26:23.752Z,70.01
2023-03-16T15:27:21.220Z,70.24
2023-03-16T15:28:21.158Z,69.85
2023-03-16T15:29:21.147Z,70.26
2023-03-16T15:30:21.146Z,69.62
2023-03-16T15:31:21.168Z,70.84
2023-03-16T15:32:21.111Z,69.85
2023-03-16T15:33:21.131Z,69.66
2023-03-16T15:34:21.085Z,71.19
2023-03-16T15:35:21.118Z,67.95
2023-03-16T15:36:21.089Z,69.52
2023-03-16T15:37:21.057Z,69.31
2023-03-16T15:38:21.025Z,70.61
2023-03-16T15:39:21.061Z,69.47
2023-03-16T15:40:21.066Z,69.12
2023-03-16T15:41:20.992Z,68.82
2023-03-16T15:42:21.039Z,67.73
2023-03-16T15:43:21.024Z,70.39
2023-03-16T15:44:21.215Z,68.76
2023-03-16T15:45:21.060Z,69.55
2023-03-16T15:46:21.016Z,69.52
2023-03-16T15:47:20.947Z,69.69
2023-03-16T15:48:20.926Z,69.83
2023-03-16T15:49:20.977Z,70.44
2023-03-16T15:50:20.891Z,70.00
2023-03-16T15:51:20.939Z,70.10
2023-03-16T15:52:20.859Z,69.39
2023-03-16T15:53:30.358Z,68.00
2023-03-16T15:54:20.899Z,70.29
2023-03-16T15:55:20.818Z,68.38
2023-03-16T15:56:20.801Z,70.17
2023-03-16T15:57:20.841Z,71.65
2023-03-16T15:58:20.787Z,70.88
2023-03-16T15:59:20.820Z,69.40
2023-03-16T16:00:20.763Z,71.42
2023-03-16T16:01:20.855Z,71.92
2023-03-16T16:02:20.757Z,69.13
2023-03-16T16:03:20.802Z,69.65
2023-03-16T16:04:20.778Z,70.41
2023-03-16T16:05:20.915Z,69.50
2023-03-16T16:06:21.408Z,68.55
2023-03-16T16:07:20.714Z,69.38
2023-03-16T16:08:20.757Z,70.10
2023-03-16T16:09:20.666Z,69.59
2023-03-16T16:10:20.652Z,70.50
2023-03-16T16:11:20.644Z,67.98
2023-03-16T16:12:20.678Z,68.42
2023-03-16T16:13:21.413Z,69.22
2023-03-16T16:14:20.617Z,68.51
2023-03-16T16:15:20.592Z,69.47
2023-03-16T16:16:20.692Z,69.84
2023-03-16T16:17:22.759Z,70.11
2023-03-16T16:18:21.884Z,69.92
2023-03-16T16:19:21.682Z,69.97
2023-03-16T16:20:20.589Z,70.80
2023-03-16T16:21:21.846Z,70.09
2023-03-16T16:22:20.542Z,70.19
2023-03-16T16:23:20.541Z,70.32
2023-03-16T16:24:20.500Z,70.68
2023-03-16T16:25:20.479Z,69.45
2023-03-16T16:26:20.473Z,71.29
2023-03-16T16:27:20.443Z,71.95
2023-03-16T16:28:20.504Z,69.77
2023-03-16T16:29:20.449Z,71.03
2023-03-16T16:30:20.424Z,70.06
2023-03-16T16:31:20.457Z,70.52
2023-03-16T16:32:20.417Z,70.70
2023-03-16T16:33:20.448Z,69.02
2023-03-16T16:34:20.412Z,69.69
2023-03-16T16:35:20.407Z,68.58
2023-03-16T16:36:20.387Z,70.74
2023-03-16T16:37:20.345Z,69.60
2023-03-16T16:38:20.318Z,70.35
2023-03-16T16:39:20.370Z,67.59
2023-03-16T16:40:20.896Z,70.01
2023-03-16T16:41:20.274Z,70.14
2023-03-16T16:42:20.274Z,70.60
2023-03-16T16:43:20.240Z,70.82
2023-03-16T16:44:20.279Z,68.51
2023-03-16T16:45:20.285Z,69.69
2023-03-16T16:46:20.307Z,69.10
2023-03-16T16:47:20.253Z,70.29
2023-03-16T16:48:20.214Z,69.09
2023-03-16T16:49:20.215Z,68.72
2023-03-16T16:50:20.169Z,68.60
2023-03-16T16:51:20.170Z,69.68
2023-03-16T16:52:20.139Z,69.95
2023-03-16T16:53:20.161Z,70.20
2023-03-16T16:54:20.192Z,67.97
2023-03-16T16:55:20.117Z,69.06
2023-03-16T16:56:20.124Z,68.89
2023-03-16T16:57:20.146Z,69.22
2023-03-16T16:58:24.642Z,69.46
2023-03-16T16:59:20.066Z,69.18
2023-03-16T17:00:20.173Z,69.87
2023-03-16T17:01:20.075Z,69.72
2023-03-16T17:02:20.041Z,68.51
2023-03-16T17:03:20.040Z,69.57
2023-03-16T17:04:20.044Z,68.27
2023-03-16T17:05:20.064Z,69.15
2023-03-16T17:06:19.990Z,69.42
2023-03-16T17:07:20.262Z,68.73
2023-03-16T17:08:19.970Z,68.63
2023-03-16T17:09:19.957Z,69.87
2023-03-16T17:10:19.952Z,69.72
2023-03-16T17:11:19.976Z,71.05
2023-03-16T17:12:19.924Z,69.59
2023-03-16T17:13:19.914Z,68.83
2023-03-16T17:14:19.923Z,69.77
2023-03-16T17:15:20.030Z,69.59
2023-03-16T17:16:19.935Z,69.34
2023-03-16T17:17:19.871Z,71.07
2023-03-16T17:18:19.864Z,70.78
2023-03-16T17:19:19.855Z,67.17
2023-03-16T17:20:19.825Z,69.90
2023-03-16T17:21:19.845Z,70.45
2023-03-16T17:22:19.809Z,69.87
2023-03-16T17:23:19.802Z,70.51
2023-03-16T17:24:19.795Z,69.59
2023-03-16T17:25:19.768Z,68.08
2023-03-16T17:26:19.778Z,68.49
2023-03-16T17:27:19.755Z,69.56
2023-03-16T17:28:19.739Z,69.89
2023-03-16T17:29:19.727Z,70.04
2023-03-16T17:30:19.724Z,70.24
2023-03-16T17:31:19.744Z,70.49
2023-03-16T17:32:19.735Z,69.72
2023-03-16T17:33:19.678Z,69.25
2023-03-16T17:34:19.687Z,69.16
2023-03-16T17:35:19.664Z,69.31
2023-03-16T17:36:19.693Z,69.37
2023-03-16T17:37:19.643Z,69.37
2023-03-16T17:38:19.671Z,69.48
2023-03-16T17:39:19.620Z,68.35
2023-03-16T17:40:19.617Z,70.15
2023-03-16T17:41:19.669Z,67.81
2023-03-16T17:42:19.653Z,68.59
2023-03-16T17:43:23.953Z,68.48
2023-03-16T17:44:20.576Z,69.96
2023-03-16T17:45:19.569Z,69.01
2023-03-16T17:46:19.554Z,70.21
2023-03-16T17:47:19.597Z,70.16
2023-03-16T17:48:19.527Z,69.19
2023-03-16T17:49:19.508Z,69.32
2023-03-16T17:50:19.510Z,69.98
2023-03-16T17:51:19.500Z,69.28
2023-03-16T17:52:19.508Z,69.68
2023-03-16T17:53:20.160Z,68.10
2023-03-16T17:54:19.443Z,68.78
2023-03-16T17:55:19.440Z,69.91
2023-03-16T17:56:19.447Z,70.67
2023-03-16T17:57:19.463Z,67.91
2023-03-16T17:58:19.449Z,69.96
2023-03-16T17:59:19.433Z,70.33
2023-03-16T18:00:19.445Z,69.48
2023-03-16T18:01:19.401Z,69.38
2023-03-16T18:02:20.005Z,68.78
2023-03-16T18:03:19.444Z,69.09
2023-03-16T18:04:19.342Z,68.33
2023-03-16T18:05:19.335Z,69.45
2023-03-16T18:06:19.319Z,66.14
2023-03-16T18:07:19.317Z,70.54
2023-03-16T18:08:19.334Z,69.49
2023-03-16T18:09:19.286Z,68.92
2023-03-16T18:10:19.269Z,68.17
2023-03-16T18:11:19.263Z,69.21
2023-03-16T18:12:19.254Z,69.30
2023-03-16T18:13:19.264Z,70.68
2023-03-16T18:14:19.234Z,68.27
2023-03-16T18:15:19.226Z,70.26
2023-03-16T18:16:19.224Z,70.10
2023-03-16T18:17:19.218Z,69.30
2023-03-16T18:18:19.183Z,68.99
2023-03-16T18:23:08.681Z,66.56
2023-03-16T18:24:08.637Z,70.16
2023-03-16T18:25:08.612Z,68.09
2023-03-16T18:26:08.660Z,67.55
2023-03-16T18:27:09.391Z,66.90
2023-03-16T18:28:08.557Z,68.70
2023-03-16T18:29:08.636Z,67.77
2023-03-16T18:30:08.562Z,67.54
2023-03-16T18:31:08.745Z,67.61
2023-03-16T18:32:08.486Z,68.51
2023-03-16T18:33:08.473Z,66.46
2023-03-16T18:34:08.475Z,67.26
2023-03-16T18:35:08.431Z,66.05
2023-03-16T18:36:08.489Z,68.48
2023-03-16T18:37:08.404Z,67.56
2023-03-16T18:38:08.389Z,67.41
2023-03-16T18:39:08.392Z,66.83
2023-03-16T18:40:08.376Z,68.04
2023-03-16T18:41:08.379Z,66.77
2023-03-16T18:42:08.342Z,66.12
2023-03-16T18:43:08.325Z,69.22
2023-03-16T18:44:08.358Z,68.73
2023-03-16T18:45:08.301Z,66.72
2023-03-16T18:46:08.296Z,67.13
2023-03-16T18:47:08.326Z,66.42
2023-03-16T18:48:08.268Z,68.48
2023-03-16T18:49:08.283Z,66.82
2023-03-16T18:50:08.239Z,67.13
2023-03-16T18:51:08.227Z,66.70
2023-03-16T18:52:08.220Z,68.32
2023-03-16T18:53:08.226Z,67.22
2023-03-16T18:54:08.201Z,68.74
2023-03-16T18:55:08.198Z,67.12
2023-03-16T18:56:08.175Z,67.98
2023-03-16T18:57:08.155Z,68.07
2023-03-16T18:58:08.176Z,67.51
2023-03-16T18:59:08.129Z,67.96
2023-03-16T19:00:08.162Z,69.11
2023-03-16T19:01:08.154Z,67.52
2023-03-16T19:02:08.124Z,69.04
2023-03-16T19:03:08.096Z,66.50
2023-03-16T19:04:08.070Z,66.73
2023-03-16T19:05:08.075Z,68.42
2023-03-16T19:06:08.048Z,68.17
2023-03-16T19:07:10.649Z,67.43
2023-03-16T19:08:08.018Z,67.66
2023-03-16T19:09:08.015Z,68.86
2023-03-16T19:10:08.022Z,69.65
2023-03-16T19:11:07.997Z,66.41
2023-03-16T19:12:08.007Z,66.48
2023-03-16T19:13:07.963Z,68.10
2023-03-16T19:14:07.955Z,69.09
2023-03-16T19:15:07.939Z,68.34
2023-03-16T19:16:07.993Z,67.72
2023-03-16T19:17:07.931Z,67.09
2023-03-16T19:18:08.067Z,67.67
2023-03-16T19:19:07.956Z,66.99
2023-03-16T19:20:07.889Z,66.67
2023-03-16T19:21:07.990Z,67.60
2023-03-16T19:22:07.871Z,67.33
2023-03-16T19:23:07.847Z,67.53
2023-03-16T19:24:07.850Z,66.63
2023-03-16T19:25:07.828Z,66.20
2023-03-16T19:26:07.817Z,67.63
2023-03-16T19:27:07.832Z,66.43
2023-03-16T19:28:08.935Z,66.51
2023-03-16T19:29:08.891Z,67.02
2023-03-16T19:30:08.880Z,66.90
2023-03-16T19:31:08.876Z,67.39
2023-03-16T19:32:09.004Z,66.36
2023-03-16T19:33:08.835Z,65.65
2023-03-16T19:34:08.851Z,66.13
2023-03-16T19:35:08.878Z,68.45
2023-03-16T19:36:08.831Z,68.50
2023-03-16T19:37:08.812Z,65.83
2023-03-16T19:38:08.828Z,65.60
2023-03-16T19:39:08.782Z,68.71
2023-03-16T19:40:08.924Z,67.44
2023-03-16T19:41:08.755Z,67.52
2023-03-16T19:42:11.310Z,67.25
2023-03-16T19:43:08.781Z,66.72
2023-03-16T19:44:08.726Z,66.51
2023-03-16T19:45:08.870Z,65.57
2023-03-16T19:46:08.765Z,65.63
2023-03-16T19:47:08.731Z,67.66
2023-03-16T19:48:08.680Z,66.50
2023-03-16T19:49:08.685Z,66.62
2023-03-16T19:50:08.643Z,66.74
2023-03-16T19:51:08.654Z,67.83
2023-03-16T19:52:08.665Z,68.76
2023-03-16T19:53:08.618Z,67.15
2023-03-16T19:54:08.635Z,67.75
2023-03-16T19:55:08.614Z,67.44
2023-03-16T19:56:08.597Z,66.34
2023-03-16T19:57:08.565Z,67.70
2023-03-16T19:58:08.563Z,65.83
2023-03-16T19:59:08.581Z,66.81
2023-03-16T20:00:09.547Z,66.77
2023-03-16T20:01:08.611Z,65.24
2023-03-16T20:02:08.523Z,65.19
2023-03-16T20:03:08.508Z,61.64
2023-03-16T20:04:08.556Z,63.53
2023-03-16T20:05:08.908Z,66.92
2023-03-16T20:06:08.461Z,65.72
2023-03-16T20:07:08.463Z,67.20
2023-03-16T20:08:08.434Z,65.67
2023-03-16T20:09:08.449Z,66.06
2023-03-16T20:10:08.510Z,66.74
2023-03-16T20:11:08.404Z,66.21
2023-03-16T20:12:08.394Z,67.44
2023-03-16T20:13:08.388Z,66.41
2023-03-16T20:14:08.740Z,67.72
2023-03-16T20:15:08.414Z,65.39
2023-03-16T20:16:08.353Z,66.41
2023-03-16T20:17:08.410Z,66.81
2023-03-16T20:18:08.332Z,64.77
2023-03-16T20:19:08.377Z,67.61
2023-03-16T20:20:08.315Z,66.74
2023-03-16T20:21:08.321Z,69.75
2023-03-16T20:22:08.302Z,65.73
2023-03-16T20:23:08.292Z,66.69
2023-03-16T20:24:08.250Z,63.73
2023-03-16T20:25:08.252Z,66.67
2023-03-16T20:26:08.267Z,65.93
2023-03-16T20:27:08.234Z,67.32
2023-03-16T20:28:08.203Z,64.95
2023-03-16T20:29:09.248Z,66.32
2023-03-16T20:30:08.182Z,64.74
2023-03-16T20:31:08.550Z,66.11
2023-03-16T20:32:08.195Z,67.04
2023-03-16T20:33:08.198Z,66.02
2023-03-16T20:34:08.133Z,66.44
2023-03-16T20:35:08.295Z,64.21
2023-03-16T20:36:08.254Z,63.80
2023-03-16T20:37:08.985Z,65.85
2023-03-16T20:38:08.110Z,65.35
2023-03-16T20:39:08.441Z,66.44
2023-03-16T20:40:08.086Z,67.07
2023-03-16T20:41:08.116Z,64.50
2023-03-16T20:42:08.372Z,65.31
2023-03-16T20:43:09.564Z,64.95
2023-03-16T20:44:08.029Z,65.88
2023-03-16T20:45:08.400Z,66.82
2023-03-16T20:46:08.094Z,64.16
2023-03-16T20:47:08.055Z,64.99
2023-03-16T20:48:08.207Z,64.54
2023-03-16T20:49:08.051Z,66.00
2023-03-16T20:50:07.974Z,65.27
2023-03-16T20:51:07.963Z,64.47
2023-03-16T20:52:07.980Z,65.33
2023-03-16T20:53:07.930Z,64.47
2023-03-16T20:54:08.207Z,64.74
2023-03-16T20:55:07.903Z,66.18
2023-03-16T20:56:07.905Z,63.60
2023-03-16T20:57:07.894Z,64.71
2023-03-16T20:58:07.886Z,65.88
2023-03-16T20:59:07.871Z,64.17
2023-03-16T21:00:08.599Z,64.90
2023-03-16T21:01:07.857Z,64.84
2023-03-16T21:02:07.826Z,65.10
2023-03-16T21:03:07.842Z,63.76
2023-03-16T21:04:07.810Z,66.02
2023-03-16T21:05:07.841Z,65.58
2023-03-16T21:06:07.789Z,65.25
2023-03-16T21:07:07.762Z,67.01
2023-03-16T21:08:07.975Z,66.83
2023-03-16T21:09:08.747Z,66.87
2023-03-16T21:10:07.746Z,64.61
2023-03-16T21:11:07.719Z,67.04
2023-03-16T21:12:07.701Z,65.55
2023-03-16T21:13:07.960Z,65.43
2023-03-16T21:14:07.705Z,63.73
2023-03-16T21:15:07.701Z,64.43
2023-03-16T21:16:07.772Z,65.61
2023-03-16T21:17:07.658Z,64.05
2023-03-16T21:18:07.648Z,67.34
2023-03-16T21:19:07.669Z,64.61
2023-03-16T21:20:07.621Z,65.14
2023-03-16T21:21:07.611Z,65.64
2023-03-16T21:22:07.605Z,66.42
2023-03-16T21:23:07.599Z,66.45
2023-03-16T21:24:07.623Z,65.30
2023-03-16T21:25:07.567Z,66.26
2023-03-16T21:26:07.550Z,65.18